Time;durP1;ratioP1;P1;durP2;ratioP2;P2;SDS_P1;SDS_P2;PMS_P1;PMS_P2;Temp;Humidity;BMP_temperature;BMP_pressure;BME280_temperature;BME280_humidity;BME280_pressure;Samples;Min_cycle;Max_cycle;Signal;HPM_P1;HPM_P2
2023/05/10 00:01:37;;;;;;;;;3.33;2.00;;;;;;;;4995854;28;45392;-72
2023/05/10 00:04:02;;;;;;;;;1.33;1.33;;;;;;;;4995812;28;45341;-72
2023/05/10 00:06:27;;;;;;;;;2.67;1.00;;;;;;;;4995667;28;46095;-72
2023/05/10 00:08:53;;;;;;;;;2.00;2.00;;;;;;;;4995266;28;45359;-72
2023/05/10 00:11:18;;;;;;;;;1.00;1.00;;;;;;;;4995876;28;45337;-71
2023/05/10 00:13:43;;;;;;;;;0.67;0.67;;;;;;;;4995695;28;45367;-71
2023/05/10 00:16:08;;;;;;;;;3.00;1.67;;;;;;;;4995408;28;45486;-71
2023/05/10 00:18:33;;;;;;;;;0.00;0.00;;;;;;;;4995815;28;45377;-74
2023/05/10 00:20:59;;;;;;;;;1.00;1.00;;;;;;;;4995367;28;45433;-71
2023/05/10 00:23:24;;;;;;;;;0.00;0.00;;;;;;;;4993961;28;45511;-71
2023/05/10 00:25:50;;;;;;;;;2.33;0.67;;;;;;;;4993904;28;45387;-71
2023/05/10 00:28:15;;;;;;;;;0.00;0.00;;;;;;;;4995174;28;45331;-71
2023/05/10 00:30:40;;;;;;;;;0.00;0.00;;;;;;;;4995778;28;45436;-72
2023/05/10 00:33:05;;;;;;;;;1.67;0.00;;;;;;;;4995636;28;45348;-72
2023/05/10 00:35:30;;;;;;;;;1.00;1.00;;;;;;;;4994617;28;46957;-71
2023/05/10 00:37:56;;;;;;;;;0.00;0.00;;;;;;;;4995425;28;45293;-72
2023/05/10 00:40:21;;;;;;;;;0.00;0.00;;;;;;;;4995647;28;45343;-71
2023/05/10 00:42:46;;;;;;;;;0.00;0.00;;;;;;;;4995754;28;45438;-71
2023/05/10 00:45:11;;;;;;;;;0.00;0.00;;;;;;;;4995610;28;46303;-71
2023/05/10 00:47:37;;;;;;;;;0.00;0.00;;;;;;;;4993405;28;45396;-72
2023/05/10 00:50:02;;;;;;;;;1.00;1.00;;;;;;;;4995091;28;45377;-71
2023/05/10 00:52:28;;;;;;;;;0.00;0.00;;;;;;;;4995661;28;45515;-71
2023/05/10 00:54:54;;;;;;;;;0.00;0.00;;;;;;;;4995255;28;45467;-71
2023/05/10 00:57:19;;;;;;;;;0.00;0.00;;;;;;;;4995330;28;45462;-70
2023/05/10 00:59:45;;;;;;;;;0.00;0.00;;;;;;;;4995424;28;45356;-71
2023/05/10 01:02:10;;;;;;;;;0.00;0.00;;;;;;;;4994964;28;45450;-71
2023/05/10 01:04:36;;;;;;;;;1.67;0.00;;;;;;;;4994741;28;45410;-71
2023/05/10 01:07:01;;;;;;;;;0.00;0.00;;;;;;;;4994785;28;45405;-72
2023/05/10 01:09:27;;;;;;;;;0.00;0.00;;;;;;;;4994778;28;45399;-71
2023/05/10 01:11:53;;;;;;;;;2.00;0.00;;;;;;;;4994700;28;45451;-71
2023/05/10 01:14:19;;;;;;;;;1.33;0.33;;;;;;;;4994104;28;46425;-71
2023/05/10 01:16:45;;;;;;;;;0.00;0.00;;;;;;;;4994765;28;45277;-71
2023/05/10 01:19:22;;;;;;;;;0.00;0.00;;;;;;;;4994151;28;45414;-71
2023/05/10 01:21:57;;;;;;;;;1.00;1.00;;;;;;;;4995014;28;45464;-71
2023/05/10 01:24:41;;;;;;;;;1.00;0.00;;;;;;;;4992832;28;45545;-71
2023/05/10 01:27:25;;;;;;;;;0.00;0.00;;;;;;;;4994543;28;45456;-72
2023/05/10 01:30:05;;;;;;;;;0.00;0.00;;;;;;;;4994760;28;45383;-72
2023/05/10 01:32:42;;;;;;;;;1.00;0.00;;;;;;;;4995353;28;45316;-71
2023/05/10 01:35:10;;;;;;;;;0.00;0.00;;;;;;;;4979200;28;47416;-72
2023/05/10 01:37:41;;;;;;;;;1.33;1.00;;;;;;;;4974851;28;45371;-72
2023/05/10 01:40:09;;;;;;;;;0.00;0.00;;;;;;;;4982654;28;45387;-71
2023/05/10 01:42:44;;;;;;;;;0.33;0.33;;;;;;;;4997086;28;45465;-71
2023/05/10 01:45:12;;;;;;;;;0.75;0.00;;;;;;;;4996366;28;45404;-71
2023/05/10 01:47:46;;;;;;;;;0.00;0.00;;;;;;;;4996257;28;45422;-72
2023/05/10 01:50:24;;;;;;;;;0.00;0.00;;;;;;;;4998293;28;45432;-70
2023/05/10 01:52:57;;;;;;;;;0.00;0.00;;;;;;;;4997821;28;45648;-71
2023/05/10 01:55:24;;;;;;;;;0.67;0.00;;;;;;;;4997513;28;47375;-71
2023/05/10 01:57:52;;;;;;;;;1.00;0.00;;;;;;;;4997784;28;45470;-71
2023/05/10 02:00:19;;;;;;;;;0.00;0.00;;;;;;;;4998226;28;45359;-71
2023/05/10 02:02:45;;;;;;;;;1.00;1.00;;;;;;;;4996487;28;45557;-71
2023/05/10 02:05:11;;;;;;;;;0.00;0.00;;;;;;;;4997534;28;47397;-71
2023/05/10 02:07:37;;;;;;;;;0.00;0.00;;;;;;;;4997072;28;45454;-73
2023/05/10 02:10:04;;;;;;;;;0.00;0.00;;;;;;;;4997553;28;45450;-72
2023/05/10 02:12:30;;;;;;;;;1.33;0.33;;;;;;;;4997682;28;45400;-72
2023/05/10 02:14:56;;;;;;;;;0.00;0.00;;;;;;;;4996131;28;47119;-72
2023/05/10 02:17:22;;;;;;;;;0.00;0.00;;;;;;;;4997052;28;45450;-72
2023/05/10 02:19:48;;;;;;;;;0.33;0.33;;;;;;;;4997721;28;45336;-71
2023/05/10 02:22:15;;;;;;;;;1.00;1.00;;;;;;;;4997103;28;45577;-71
2023/05/10 02:24:41;;;;;;;;;0.00;0.00;;;;;;;;4997120;28;45411;-73
2023/05/10 02:27:06;;;;;;;;;0.33;0.33;;;;;;;;4997516;28;45401;-71
2023/05/10 02:29:33;;;;;;;;;0.00;0.00;;;;;;;;4997802;28;45560;-71
2023/05/10 02:31:58;;;;;;;;;0.00;0.00;;;;;;;;4997477;28;45408;-71
2023/05/10 02:34:25;;;;;;;;;1.67;0.67;;;;;;;;4997425;28;46249;-72
2023/05/10 02:36:51;;;;;;;;;0.00;0.00;;;;;;;;4997146;28;45467;-71
2023/05/10 02:39:17;;;;;;;;;0.33;0.00;;;;;;;;4997227;28;45475;-72
2023/05/10 02:41:43;;;;;;;;;0.00;0.00;;;;;;;;4997801;28;45457;-72
2023/05/10 02:44:09;;;;;;;;;0.00;0.00;;;;;;;;4997075;28;45664;-71
2023/05/10 02:46:35;;;;;;;;;0.00;0.00;;;;;;;;4997304;28;45444;-71
2023/05/10 02:49:01;;;;;;;;;0.00;0.00;;;;;;;;4996392;28;45414;-71
2023/05/10 02:51:28;;;;;;;;;0.00;0.00;;;;;;;;4995494;28;45241;-71
2023/05/10 02:53:53;;;;;;;;;0.00;0.00;;;;;;;;4997533;28;45336;-71
2023/05/10 02:56:24;;;;;;;;;0.00;0.00;;;;;;;;4996656;28;45289;-70
2023/05/10 02:58:50;;;;;;;;;0.00;0.00;;;;;;;;4997232;28;45355;-71
2023/05/10 03:01:15;;;;;;;;;0.00;0.00;;;;;;;;4996278;28;45316;-72
2023/05/10 03:03:40;;;;;;;;;1.00;1.00;;;;;;;;4995377;28;45526;-72
2023/05/10 03:06:05;;;;;;;;;1.75;0.00;;;;;;;;4996984;28;45389;-71
2023/05/10 03:08:31;;;;;;;;;0.00;0.00;;;;;;;;4996856;28;45390;-71
2023/05/10 03:10:56;;;;;;;;;0.00;0.00;;;;;;;;4996931;28;45328;-71
2023/05/10 03:13:27;;;;;;;;;0.00;0.00;;;;;;;;4996637;28;46362;-72
2023/05/10 03:15:57;;;;;;;;;0.33;0.00;;;;;;;;4996347;28;45471;-71
2023/05/10 03:18:28;;;;;;;;;0.00;0.00;;;;;;;;4996512;28;45391;-71
2023/05/10 03:20:57;;;;;;;;;1.00;1.00;;;;;;;;4996419;28;45427;-71
2023/05/10 03:23:27;;;;;;;;;1.33;0.00;;;;;;;;4996056;28;47155;-71
2023/05/10 03:25:52;;;;;;;;;0.00;0.00;;;;;;;;4996305;28;45460;-71
2023/05/10 03:28:18;;;;;;;;;1.00;0.00;;;;;;;;4996448;28;45388;-72
2023/05/10 03:30:43;;;;;;;;;0.00;0.00;;;;;;;;4996260;28;45570;-71
2023/05/10 03:33:08;;;;;;;;;0.00;0.00;;;;;;;;4996200;28;45572;-71
2023/05/10 03:35:34;;;;;;;;;0.00;0.00;;;;;;;;4996011;28;45482;-71
2023/05/10 03:37:59;;;;;;;;;0.00;0.00;;;;;;;;4996230;28;45339;-71
2023/05/10 03:40:25;;;;;;;;;0.67;0.00;;;;;;;;4996454;28;45443;-71
2023/05/10 03:42:51;;;;;;;;;0.00;0.00;;;;;;;;4996361;28;46105;-71
2023/05/10 03:45:16;;;;;;;;;0.67;0.00;;;;;;;;4996235;28;45351;-71
2023/05/10 03:47:41;;;;;;;;;2.00;0.00;;;;;;;;4996745;28;45336;-71
2023/05/10 03:50:07;;;;;;;;;0.00;0.00;;;;;;;;4996316;28;45414;-71
2023/05/10 03:52:32;;;;;;;;;0.00;0.00;;;;;;;;4996130;28;47216;-71
2023/05/10 03:54:57;;;;;;;;;0.00;0.00;;;;;;;;4996087;28;45418;-71
2023/05/10 03:57:22;;;;;;;;;0.00;0.00;;;;;;;;4994832;28;45442;-71
2023/05/10 03:59:49;;;;;;;;;1.00;0.00;;;;;;;;4996297;28;45503;-71
2023/05/10 04:02:14;;;;;;;;;0.00;0.00;;;;;;;;4995868;28;47236;-71
2023/05/10 04:04:39;;;;;;;;;0.00;0.00;;;;;;;;4995170;28;45394;-71
2023/05/10 04:07:05;;;;;;;;;0.00;0.00;;;;;;;;4992698;28;45538;-71
2023/05/10 04:09:30;;;;;;;;;0.00;0.00;;;;;;;;4994506;28;45622;-70
2023/05/10 04:11:55;;;;;;;;;0.00;0.00;;;;;;;;4995411;28;47173;-71
2023/05/10 04:14:20;;;;;;;;;0.00;0.00;;;;;;;;4995470;28;45399;-71
2023/05/10 04:16:45;;;;;;;;;0.00;0.00;;;;;;;;4995917;28;45370;-71
2023/05/10 04:19:11;;;;;;;;;1.00;0.00;;;;;;;;4995063;28;45357;-70
2023/05/10 04:21:36;;;;;;;;;0.00;0.00;;;;;;;;4995935;28;47216;-71
2023/05/10 04:24:01;;;;;;;;;0.00;0.00;;;;;;;;4996023;28;45336;-71
2023/05/10 04:26:27;;;;;;;;;0.00;0.00;;;;;;;;4995557;28;45300;-71
2023/05/10 04:28:52;;;;;;;;;0.00;0.00;;;;;;;;4995050;28;45540;-71
2023/05/10 04:31:17;;;;;;;;;0.00;0.00;;;;;;;;4995386;28;45292;-71
2023/05/10 04:33:42;;;;;;;;;0.50;0.50;;;;;;;;4995728;28;45312;-71
2023/05/10 04:36:08;;;;;;;;;1.00;0.00;;;;;;;;4995833;28;45320;-72
2023/05/10 04:38:33;;;;;;;;;0.67;0.00;;;;;;;;4995898;28;45304;-71
2023/05/10 04:41:05;;;;;;;;;0.33;0.33;;;;;;;;4995551;28;46421;-71
2023/05/10 04:43:30;;;;;;;;;0.00;0.00;;;;;;;;4994860;28;45332;-70
2023/05/10 04:45:56;;;;;;;;;0.00;0.00;;;;;;;;4995358;28;45389;-71
2023/05/10 04:48:22;;;;;;;;;0.00;0.00;;;;;;;;4995380;28;45495;-71
2023/05/10 04:50:47;;;;;;;;;0.00;0.00;;;;;;;;4994112;28;48302;-71
2023/05/10 04:53:12;;;;;;;;;0.00;0.00;;;;;;;;4995344;28;45340;-71
2023/05/10 04:55:38;;;;;;;;;1.00;0.00;;;;;;;;4995334;28;45363;-71
2023/05/10 04:58:03;;;;;;;;;2.00;0.67;;;;;;;;4995103;28;45277;-71
2023/05/10 05:00:28;;;;;;;;;0.00;0.00;;;;;;;;4993811;28;45639;-72
2023/05/10 05:02:53;;;;;;;;;0.00;0.00;;;;;;;;4994922;28;45498;-72
2023/05/10 05:05:19;;;;;;;;;0.00;0.00;;;;;;;;4995217;28;45324;-73
2023/05/10 05:07:44;;;;;;;;;0.00;0.00;;;;;;;;4995113;28;45448;-73
2023/05/10 05:10:09;;;;;;;;;0.67;0.67;;;;;;;;4994410;28;47177;-72
2023/05/10 05:12:35;;;;;;;;;0.00;0.00;;;;;;;;4994890;28;45570;-73
2023/05/10 05:15:00;;;;;;;;;1.00;1.00;;;;;;;;4994040;28;45422;-72
2023/05/10 05:17:26;;;;;;;;;0.00;0.00;;;;;;;;4994761;28;45256;-73
2023/05/10 05:19:51;;;;;;;;;0.00;0.00;;;;;;;;4994256;28;46144;-73
2023/05/10 05:22:16;;;;;;;;;0.00;0.00;;;;;;;;4994864;28;45315;-73
2023/05/10 05:24:41;;;;;;;;;1.00;0.00;;;;;;;;4994928;28;45345;-73
2023/05/10 05:27:07;;;;;;;;;1.00;1.00;;;;;;;;4994235;28;45588;-72
2023/05/10 05:29:32;;;;;;;;;1.67;1.67;;;;;;;;4994677;28;47212;-71
2023/05/10 05:31:57;;;;;;;;;1.00;1.00;;;;;;;;4994951;28;45411;-72
2023/05/10 05:34:22;;;;;;;;;2.00;1.00;;;;;;;;4994977;28;45347;-72
2023/05/10 05:36:48;;;;;;;;;1.00;1.00;;;;;;;;4995054;28;45443;-70
2023/05/10 05:39:13;;;;;;;;;1.00;1.00;;;;;;;;4994415;28;45587;-70
2023/05/10 05:41:38;;;;;;;;;1.33;1.33;;;;;;;;4994658;28;45415;-70
2023/05/10 05:44:04;;;;;;;;;2.00;1.00;;;;;;;;4990724;28;45516;-70
2023/05/10 05:46:29;;;;;;;;;1.00;1.00;;;;;;;;4994003;28;45346;-70
2023/05/10 05:48:54;;;;;;;;;1.00;1.00;;;;;;;;4975163;28;45513;-69
2023/05/10 05:51:20;;;;;;;;;1.67;1.67;;;;;;;;4975960;28;45914;-70
2023/05/10 05:53:45;;;;;;;;;1.67;1.67;;;;;;;;4995281;28;45379;-70
2023/05/10 05:56:10;;;;;;;;;1.67;1.67;;;;;;;;4993861;28;45423;-69
2023/05/10 05:58:35;;;;;;;;;1.00;1.00;;;;;;;;4993927;28;45463;-70
2023/05/10 06:01:01;;;;;;;;;1.00;1.00;;;;;;;;4994234;28;45524;-70
2023/05/10 06:03:26;;;;;;;;;3.00;2.00;;;;;;;;4994259;28;45378;-71
2023/05/10 06:05:51;;;;;;;;;4.33;4.33;;;;;;;;4993528;28;45413;-70
2023/05/10 06:08:16;;;;;;;;;1.00;1.00;;;;;;;;4994258;28;45382;-70
2023/05/10 06:10:41;;;;;;;;;2.00;2.00;;;;;;;;4994204;28;45399;-69
2023/05/10 06:13:07;;;;;;;;;3.33;2.00;;;;;;;;4994673;28;45449;-69
2023/05/10 06:15:32;;;;;;;;;3.00;1.33;;;;;;;;4994126;28;45487;-69
2023/05/10 06:17:57;;;;;;;;;2.00;1.00;;;;;;;;4994385;28;46249;-69
2023/05/10 06:20:23;;;;;;;;;0.00;0.00;;;;;;;;4993277;28;45482;-69
2023/05/10 06:22:48;;;;;;;;;4.00;1.00;;;;;;;;4994391;28;45488;-69
2023/05/10 06:25:14;;;;;;;;;1.33;1.33;;;;;;;;4993893;28;45276;-69
2023/05/10 06:27:39;;;;;;;;;1.00;1.00;;;;;;;;4995696;28;46911;-69
2023/05/10 06:30:05;;;;;;;;;3.00;2.00;;;;;;;;4997517;28;45448;-69
2023/05/10 06:32:30;;;;;;;;;3.33;2.00;;;;;;;;4997770;28;45447;-70
2023/05/10 06:34:55;;;;;;;;;1.00;1.00;;;;;;;;4997334;28;45553;-70
2023/05/10 06:37:20;;;;;;;;;3.50;3.50;;;;;;;;4997303;28;45466;-70
2023/05/10 06:39:46;;;;;;;;;1.33;1.33;;;;;;;;4996887;28;45345;-70
2023/05/10 06:42:11;;;;;;;;;3.00;2.00;;;;;;;;4997737;28;45591;-69
2023/05/10 06:44:36;;;;;;;;;2.00;2.00;;;;;;;;4996922;28;45452;-69
2023/05/10 06:47:01;;;;;;;;;2.00;1.00;;;;;;;;4995999;28;46139;-68
2023/05/10 06:49:27;;;;;;;;;1.67;1.00;;;;;;;;4997200;28;45380;-69
2023/05/10 06:51:52;;;;;;;;;3.00;2.00;;;;;;;;4997485;28;45624;-69
2023/05/10 06:54:17;;;;;;;;;3.00;2.00;;;;;;;;4996771;28;45423;-69
2023/05/10 06:56:42;;;;;;;;;2.67;2.67;;;;;;;;4996585;28;45560;-69
2023/05/10 06:59:08;;;;;;;;;5.00;2.67;;;;;;;;4997169;28;45352;-69
2023/05/10 07:01:33;;;;;;;;;1.25;1.25;;;;;;;;4995771;28;45422;-69
2023/05/10 07:03:58;;;;;;;;;3.00;2.00;;;;;;;;4997244;28;45321;-69
2023/05/10 07:06:23;;;;;;;;;3.00;1.75;;;;;;;;4996670;28;46082;-69
2023/05/10 07:08:48;;;;;;;;;2.00;1.00;;;;;;;;4995508;28;45417;-68
2023/05/10 07:11:14;;;;;;;;;4.00;2.33;;;;;;;;4996680;28;45469;-68
2023/05/10 07:13:41;;;;;;;;;1.67;1.67;;;;;;;;4995717;28;45420;-69
2023/05/10 07:16:07;;;;;;;;;4.75;3.00;;;;;;;;4996766;28;46183;-69
2023/05/10 07:18:33;;;;;;;;;4.67;2.67;;;;;;;;4996704;28;45362;-69
2023/05/10 07:20:58;;;;;;;;;4.00;3.33;;;;;;;;4996776;28;45491;-69
2023/05/10 07:23:24;;;;;;;;;4.00;4.00;;;;;;;;4996522;28;45472;-70
2023/05/10 07:25:51;;;;;;;;;3.67;2.00;;;;;;;;4995298;28;46636;-69
2023/05/10 07:28:16;;;;;;;;;3.67;3.00;;;;;;;;4996691;28;45474;-69
2023/05/10 07:30:41;;;;;;;;;3.00;3.00;;;;;;;;4995337;28;45451;-69
2023/05/10 07:33:08;;;;;;;;;4.00;3.00;;;;;;;;4996446;28;45302;-69
2023/05/10 07:35:33;;;;;;;;;5.00;4.67;;;;;;;;4996320;28;47177;-70
2023/05/10 07:37:58;;;;;;;;;3.00;3.00;;;;;;;;4994798;28;45472;-69
2023/05/10 07:40:23;;;;;;;;;4.00;2.00;;;;;;;;4995937;28;45325;-69
2023/05/10 07:42:49;;;;;;;;;3.00;2.00;;;;;;;;4995849;28;45885;-71
2023/05/10 07:45:14;;;;;;;;;2.00;2.00;;;;;;;;4995925;28;45528;-70
2023/05/10 07:47:39;;;;;;;;;3.00;3.00;;;;;;;;4996588;28;45388;-71
2023/05/10 07:50:05;;;;;;;;;1.00;1.00;;;;;;;;4996518;28;45307;-70
2023/05/10 07:52:30;;;;;;;;;2.50;2.50;;;;;;;;4995355;28;45345;-69
2023/05/10 07:54:56;;;;;;;;;2.00;2.00;;;;;;;;4995127;28;47743;-70
2023/05/10 07:57:21;;;;;;;;;4.50;3.00;;;;;;;;4996022;28;45388;-69
2023/05/10 07:59:47;;;;;;;;;6.25;5.75;;;;;;;;4996225;28;45324;-69
2023/05/10 08:02:12;;;;;;;;;4.50;3.00;;;;;;;;4996203;28;45339;-69
2023/05/10 08:04:37;;;;;;;;;9.00;7.00;;;;;;;;4994896;28;45308;-69
2023/05/10 08:07:02;;;;;;;;;5.50;3.25;;;;;;;;4996018;28;45276;-69
2023/05/10 08:09:28;;;;;;;;;5.75;5.25;;;;;;;;4996002;28;45489;-69
2023/05/10 08:11:53;;;;;;;;;4.75;4.75;;;;;;;;4996619;28;45377;-69
2023/05/10 08:14:18;;;;;;;;;5.50;5.50;;;;;;;;4995939;28;47033;-69
2023/05/10 08:16:43;;;;;;;;;2.75;2.75;;;;;;;;4994669;28;45297;-69
2023/05/10 08:19:08;;;;;;;;;7.00;7.00;;;;;;;;4996207;28;45376;-69
2023/05/10 08:21:34;;;;;;;;;9.00;5.25;;;;;;;;4995563;28;45316;-69
2023/05/10 08:23:59;;;;;;;;;4.50;4.50;;;;;;;;4995965;28;46925;-69
2023/05/10 08:26:24;;;;;;;;;7.25;3.75;;;;;;;;4994373;28;45938;-69
2023/05/10 08:28:50;;;;;;;;;4.75;4.75;;;;;;;;4994696;28;45484;-69
2023/05/10 08:31:15;;;;;;;;;9.75;5.75;;;;;;;;4996002;28;45391;-69
2023/05/10 08:33:40;;;;;;;;;6.00;4.75;;;;;;;;4995529;28;47099;-69
2023/05/10 08:36:06;;;;;;;;;2.75;2.00;;;;;;;;4995589;28;45380;-69
2023/05/10 08:38:31;;;;;;;;;5.00;5.00;;;;;;;;4995969;28;45409;-69
2023/05/10 08:40:56;;;;;;;;;7.00;7.00;;;;;;;;4995933;28;45536;-70
2023/05/10 08:43:25;;;;;;;;;6.50;6.25;;;;;;;;4993537;28;46779;-69
2023/05/10 08:45:53;;;;;;;;;4.50;4.50;;;;;;;;4995812;28;45405;-69
2023/05/10 08:48:18;;;;;;;;;6.00;4.25;;;;;;;;4995429;28;45531;-69
2023/05/10 08:50:44;;;;;;;;;6.00;5.25;;;;;;;;4994840;28;45463;-69
2023/05/10 08:53:10;;;;;;;;;5.50;4.25;;;;;;;;4994959;28;47326;-69
2023/05/10 08:55:38;;;;;;;;;8.00;6.50;;;;;;;;4995397;28;45410;-69
2023/05/10 08:58:03;;;;;;;;;6.75;6.75;;;;;;;;4995400;28;45426;-69
2023/05/10 09:00:29;;;;;;;;;6.00;5.75;;;;;;;;4995621;28;45455;-69
2023/05/10 09:02:54;;;;;;;;;5.00;5.00;;;;;;;;4995080;28;45883;-69
2023/05/10 09:05:20;;;;;;;;;7.00;6.00;;;;;;;;4994364;28;45586;-70
2023/05/10 09:07:45;;;;;;;;;5.00;5.00;;;;;;;;4995123;28;45387;-69
2023/05/10 09:10:11;;;;;;;;;7.75;5.25;;;;;;;;4994927;28;45415;-69
2023/05/10 09:12:36;;;;;;;;;9.00;6.50;;;;;;;;4994987;28;46762;-68
2023/05/10 09:15:03;;;;;;;;;6.50;6.00;;;;;;;;4995197;28;45464;-69
2023/05/10 09:17:29;;;;;;;;;9.25;6.25;;;;;;;;4994549;28;45870;-69
2023/05/10 09:19:58;;;;;;;;;8.50;7.00;;;;;;;;4995529;28;45372;-69
2023/05/10 09:22:24;;;;;;;;;6.50;5.25;;;;;;;;4995109;28;46348;-69
2023/05/10 09:25:03;;;;;;;;;7.25;6.50;;;;;;;;4994914;28;45470;-68
2023/05/10 09:27:28;;;;;;;;;7.25;5.25;;;;;;;;4994936;28;45518;-69
2023/05/10 09:29:54;;;;;;;;;7.25;7.25;;;;;;;;4995172;28;45410;-68
2023/05/10 09:32:20;;;;;;;;;9.00;5.25;;;;;;;;4994780;28;46263;-69
2023/05/10 09:34:45;;;;;;;;;6.00;6.00;;;;;;;;4994939;28;45392;-69
2023/05/10 09:37:11;;;;;;;;;10.50;7.25;;;;;;;;4994889;28;45402;-69
2023/05/10 09:39:37;;;;;;;;;7.75;7.00;;;;;;;;4994793;28;45406;-70
2023/05/10 09:42:03;;;;;;;;;9.25;5.50;;;;;;;;4994952;28;45471;-69
2023/05/10 09:44:29;;;;;;;;;6.75;6.25;;;;;;;;4994050;28;45501;-69
2023/05/10 09:46:54;;;;;;;;;8.00;8.00;;;;;;;;4993462;28;45415;-68
2023/05/10 09:49:21;;;;;;;;;6.50;6.50;;;;;;;;4994549;28;45469;-68
2023/05/10 09:51:46;;;;;;;;;6.50;6.50;;;;;;;;4994387;28;46399;-68
2023/05/10 09:54:15;;;;;;;;;8.00;6.00;;;;;;;;4994845;28;45416;-68
2023/05/10 09:56:40;;;;;;;;;11.25;9.25;;;;;;;;4993324;28;45367;-68
2023/05/10 09:59:06;;;;;;;;;8.25;7.25;;;;;;;;4995148;28;45352;-69
2023/05/10 10:01:31;;;;;;;;;10.50;9.75;;;;;;;;4994527;28;46338;-69
2023/05/10 10:03:58;;;;;;;;;10.75;8.75;;;;;;;;4997946;28;45284;-68
2023/05/10 10:06:23;;;;;;;;;7.50;7.50;;;;;;;;4998342;28;45363;-69
2023/05/10 10:08:48;;;;;;;;;7.50;7.25;;;;;;;;4997731;28;45489;-68
2023/05/10 10:11:13;;;;;;;;;5.25;5.25;;;;;;;;4998054;28;46246;-69
2023/05/10 10:13:39;;;;;;;;;11.25;7.00;;;;;;;;4997313;28;45315;-69
2023/05/10 10:16:04;;;;;;;;;7.25;7.25;;;;;;;;4999851;28;45423;-69
2023/05/10 10:18:30;;;;;;;;;10.50;6.25;;;;;;;;5008005;28;45501;-70
2023/05/10 10:20:56;;;;;;;;;8.00;5.25;;;;;;;;4997703;28;47094;-71
2023/05/10 10:23:21;;;;;;;;;10.75;5.25;;;;;;;;4998448;28;45335;-71
2023/05/10 10:25:48;;;;;;;;;12.75;10.00;;;;;;;;4997778;28;45320;-71
2023/05/10 10:28:24;;;;;;;;;6.50;5.50;;;;;;;;4998328;28;45379;-70
2023/05/10 10:30:51;;;;;;;;;10.00;9.25;;;;;;;;4997416;28;45400;-70
2023/05/10 10:33:28;;;;;;;;;10.25;9.00;;;;;;;;5007233;28;45387;-70
2023/05/10 10:35:54;;;;;;;;;7.75;7.75;;;;;;;;5006109;28;46281;-70
2023/05/10 10:38:20;;;;;;;;;10.50;7.25;;;;;;;;4996897;28;45437;-69
2023/05/10 10:40:45;;;;;;;;;7.75;7.75;;;;;;;;5003377;28;45556;-71
2023/05/10 10:43:23;;;;;;;;;13.50;9.00;;;;;;;;5016162;28;45472;-70
2023/05/10 10:46:07;;;;;;;;;7.75;6.00;;;;;;;;4997460;28;45371;-70
2023/05/10 10:48:32;;;;;;;;;6.75;6.75;;;;;;;;4997637;28;45288;-70
2023/05/10 10:50:58;;;;;;;;;5.75;5.75;;;;;;;;4996010;28;47026;-70
2023/05/10 10:53:26;;;;;;;;;5.50;5.50;;;;;;;;4997685;28;45328;-70
2023/05/10 10:56:02;;;;;;;;;10.00;7.50;;;;;;;;5001871;28;45552;-70
2023/05/10 10:58:31;;;;;;;;;9.50;9.50;;;;;;;;5013851;28;45585;-70
2023/05/10 11:01:13;;;;;;;;;7.50;7.50;;;;;;;;5017068;28;45626;-70
2023/05/10 11:03:38;;;;;;;;;7.50;6.75;;;;;;;;5017755;28;45462;-71
2023/05/10 11:06:03;;;;;;;;;1.75;1.75;;;;;;;;4998775;28;45600;-71
2023/05/10 11:08:30;;;;;;;;;7.00;6.50;;;;;;;;5005247;28;45513;-70
2023/05/10 11:11:03;;;;;;;;;5.00;4.75;;;;;;;;4997128;28;46142;-71
2023/05/10 11:13:29;;;;;;;;;5.50;5.50;;;;;;;;4996454;28;45413;-71
2023/05/10 11:15:56;;;;;;;;;9.50;7.50;;;;;;;;4996968;28;45477;-72
2023/05/10 11:18:29;;;;;;;;;9.00;6.50;;;;;;;;4997846;28;45523;-70
2023/05/10 11:20:56;;;;;;;;;8.50;5.50;;;;;;;;4997581;28;46070;-71
2023/05/10 11:23:21;;;;;;;;;8.00;6.25;;;;;;;;4996656;28;45398;-71
2023/05/10 11:25:48;;;;;;;;;4.75;4.75;;;;;;;;5000150;28;45517;-71
2023/05/10 11:28:13;;;;;;;;;5.33;3.67;;;;;;;;4996681;28;45419;-70
2023/05/10 11:30:39;;;;;;;;;8.00;6.67;;;;;;;;4996817;28;46626;-71
2023/05/10 11:33:04;;;;;;;;;7.67;6.00;;;;;;;;4995459;28;45367;-71
2023/05/10 11:35:30;;;;;;;;;7.67;7.00;;;;;;;;4995147;28;45899;-70
2023/05/10 11:37:55;;;;;;;;;7.00;5.00;;;;;;;;4995371;28;45351;-71
2023/05/10 11:40:26;;;;;;;;;6.00;4.67;;;;;;;;4994994;28;45379;-70
2023/05/10 11:42:55;;;;;;;;;4.00;4.00;;;;;;;;4994814;28;45402;-72
2023/05/10 11:45:23;;;;;;;;;5.67;4.00;;;;;;;;4994884;28;45537;-71
2023/05/10 11:47:48;;;;;;;;;4.67;4.00;;;;;;;;4992898;28;45395;-71
2023/05/10 11:50:14;;;;;;;;;6.33;5.67;;;;;;;;4994656;28;45619;-70
2023/05/10 11:52:39;;;;;;;;;10.75;7.75;;;;;;;;4995156;28;45390;-70
2023/05/10 11:55:04;;;;;;;;;4.67;4.00;;;;;;;;4994373;28;45315;-70
2023/05/10 11:57:31;;;;;;;;;5.00;4.00;;;;;;;;4994058;28;45410;-72
2023/05/10 11:59:57;;;;;;;;;5.25;4.00;;;;;;;;4995344;28;45521;-72
2023/05/10 12:02:22;;;;;;;;;4.33;2.67;;;;;;;;4995055;28;45606;-70
2023/05/10 12:04:47;;;;;;;;;9.00;6.00;;;;;;;;4995285;28;45370;-72
2023/05/10 12:07:12;;;;;;;;;4.67;4.67;;;;;;;;4994976;28;45530;-72
2023/05/10 12:09:42;;;;;;;;;2.00;2.00;;;;;;;;4994940;28;46216;-72
2023/05/10 12:12:07;;;;;;;;;3.33;3.33;;;;;;;;4994145;28;45615;-72
2023/05/10 12:14:34;;;;;;;;;5.33;3.67;;;;;;;;4995829;28;45477;-73
2023/05/10 12:17:00;;;;;;;;;6.67;6.67;;;;;;;;4994992;28;45557;-72
2023/05/10 12:19:25;;;;;;;;;4.25;4.25;;;;;;;;4994812;28;45580;-73
2023/05/10 12:21:50;;;;;;;;;5.33;3.00;;;;;;;;4995123;28;45430;-72
2023/05/10 12:24:19;;;;;;;;;3.67;2.33;;;;;;;;4994387;28;45371;-72
2023/05/10 12:26:45;;;;;;;;;4.33;4.33;;;;;;;;4994657;28;45533;-72
2023/05/10 12:29:13;;;;;;;;;3.67;2.00;;;;;;;;4995510;28;46129;-71
2023/05/10 12:31:54;;;;;;;;;7.67;4.00;;;;;;;;4995497;28;45383;-72
2023/05/10 12:34:26;;;;;;;;;6.75;5.75;;;;;;;;4976230;28;45395;-72
2023/05/10 12:36:52;;;;;;;;;5.00;5.00;;;;;;;;4976441;28;45623;-72
2023/05/10 12:39:17;;;;;;;;;5.75;4.00;;;;;;;;4975370;28;45675;-72
2023/05/10 12:41:43;;;;;;;;;4.33;3.67;;;;;;;;4975570;28;45341;-72
2023/05/10 12:44:08;;;;;;;;;6.33;5.00;;;;;;;;4984538;28;45708;-70
2023/05/10 12:46:33;;;;;;;;;5.67;3.00;;;;;;;;4995407;28;45490;-73
2023/05/10 12:48:58;;;;;;;;;6.00;3.67;;;;;;;;4994612;28;47308;-72
2023/05/10 12:51:23;;;;;;;;;4.33;4.33;;;;;;;;4995890;28;45302;-72
2023/05/10 12:53:49;;;;;;;;;4.00;3.00;;;;;;;;4995171;28;45387;-73
2023/05/10 12:56:14;;;;;;;;;9.00;6.00;;;;;;;;4994210;28;45509;-72
2023/05/10 12:58:40;;;;;;;;;7.33;4.33;;;;;;;;4995497;28;46859;-72
2023/05/10 13:01:05;;;;;;;;;4.00;4.00;;;;;;;;4995231;28;45441;-72
2023/05/10 13:03:30;;;;;;;;;5.67;5.67;;;;;;;;4995623;28;45459;-72
2023/05/10 13:05:56;;;;;;;;;5.67;4.67;;;;;;;;4995298;28;45348;-72
2023/05/10 13:08:21;;;;;;;;;10.33;4.67;;;;;;;;4994036;28;45398;-72
2023/05/10 13:10:46;;;;;;;;;6.00;4.00;;;;;;;;4995580;28;45484;-72
2023/05/10 13:13:12;;;;;;;;;4.00;2.00;;;;;;;;4995570;28;45371;-72
2023/05/10 13:15:37;;;;;;;;;3.00;3.00;;;;;;;;4996735;28;45471;-72
2023/05/10 13:18:02;;;;;;;;;3.00;3.00;;;;;;;;4995547;28;46516;-73
2023/05/10 13:20:27;;;;;;;;;2.33;2.33;;;;;;;;4995948;28;45390;-73
2023/05/10 13:22:53;;;;;;;;;4.67;4.00;;;;;;;;4994787;28;45476;-73
2023/05/10 13:25:18;;;;;;;;;2.33;2.33;;;;;;;;4995218;28;45527;-73
2023/05/10 13:27:43;;;;;;;;;7.33;4.67;;;;;;;;4995286;28;47084;-73
2023/05/10 13:30:08;;;;;;;;;4.33;3.00;;;;;;;;4995056;28;45874;-73
2023/05/10 13:32:34;;;;;;;;;4.33;3.33;;;;;;;;4995309;28;45450;-73
2023/05/10 13:34:59;;;;;;;;;5.00;3.00;;;;;;;;4995422;28;45446;-73
2023/05/10 13:37:24;;;;;;;;;4.00;4.00;;;;;;;;4997500;28;46251;-73
2023/05/10 13:39:49;;;;;;;;;4.00;3.00;;;;;;;;4997918;28;45482;-72
2023/05/10 13:42:15;;;;;;;;;3.33;3.00;;;;;;;;4998214;28;45496;-72
2023/05/10 13:44:40;;;;;;;;;5.33;4.00;;;;;;;;4997720;28;45620;-73
2023/05/10 13:47:05;;;;;;;;;5.67;3.00;;;;;;;;4997789;28;47569;-73
2023/05/10 13:49:31;;;;;;;;;1.00;1.00;;;;;;;;4998595;28;45471;-72
2023/05/10 13:51:56;;;;;;;;;2.67;2.67;;;;;;;;4998431;28;45323;-73
2023/05/10 13:54:22;;;;;;;;;2.33;1.67;;;;;;;;4998152;28;45390;-73
2023/05/10 13:56:48;;;;;;;;;3.67;3.00;;;;;;;;4998033;28;45449;-73
2023/05/10 13:59:14;;;;;;;;;4.67;2.33;;;;;;;;4998323;28;45384;-73
2023/05/10 14:01:39;;;;;;;;;2.00;2.00;;;;;;;;4998243;28;45381;-73
2023/05/10 14:04:04;;;;;;;;;1.00;1.00;;;;;;;;4998321;28;45501;-73
2023/05/10 14:06:30;;;;;;;;;1.00;0.00;;;;;;;;4997680;28;45289;-71
2023/05/10 14:08:56;;;;;;;;;4.33;0.00;;;;;;;;4997327;28;45335;-73
2023/05/10 14:11:21;;;;;;;;;2.00;1.00;;;;;;;;4997806;28;45353;-72
2023/05/10 14:13:46;;;;;;;;;1.00;1.00;;;;;;;;4998102;28;45387;-73
2023/05/10 14:16:12;;;;;;;;;1.00;1.00;;;;;;;;4997216;28;45957;-72
2023/05/10 14:18:37;;;;;;;;;4.00;1.33;;;;;;;;4997634;28;45411;-72
2023/05/10 14:21:03;;;;;;;;;2.67;0.67;;;;;;;;4997621;28;45323;-72
2023/05/10 14:23:28;;;;;;;;;1.00;1.00;;;;;;;;4997272;28;45516;-70
2023/05/10 14:25:54;;;;;;;;;1.00;1.00;;;;;;;;4997261;28;46152;-72
2023/05/10 14:28:20;;;;;;;;;1.00;1.00;;;;;;;;4997394;28;45485;-72
2023/05/10 14:30:46;;;;;;;;;2.67;1.67;;;;;;;;4998128;28;45422;-73
2023/05/10 14:33:11;;;;;;;;;0.33;0.33;;;;;;;;4996265;28;45514;-72
2023/05/10 14:35:37;;;;;;;;;1.00;1.00;;;;;;;;4997669;28;45509;-72
2023/05/10 14:38:03;;;;;;;;;1.00;1.00;;;;;;;;4996949;28;45819;-72